Airfield :
LOGIN :

Register | Disclaimer

   EN    FR    IT 

 










Legend :    VFR   Marginal VFR   IFR   Intensive IFR   Very Intensive IFR
Visi :
Ceiling :
>= 8 km
>= 3000ft
5 to 8 km
1000 to 3000 ft
1500m to 5 km
500 to 1000 ft
800 to 1500m
200 to 500 ft
< 800m
< 200 ft
Symbols :   Thunderstorms  Fog  Heavy snow  Heavy precipitations  Wind > 20 kt
SIGMETs :     Misc.  Thunderstorms  Icing  Turbulence  Mountain Waves  Volcanic Ashes







- Airport Elevation : 1234 ft
- IATA code : LUX


ELLX - Luxembourg Findel

EXPIRED METARs :
  • 241420Z 24013KT 200V270 9999 SCT048 23/10 Q1018 NOSIG
  • 241350Z 24013KT 9999 BKN045 22/09 Q1018 NOSIG
  • 241320Z 27013KT 9999 BKN045 21/10 Q1018 NOSIG
  • 241250Z 24011KT 200V270 9999 BKN042 23/09 Q1018 NOSIG
  • 241220Z 24012KT 210V280 9999 BKN041 21/10 Q1018 NOSIG
  • 241150Z 25014KT 220V280 9999 BKN041 21/10 Q1018 NOSIG

TAF TAF ELLX
Valid from the 24 at 12:00 until the 25 at 18:00 UTC


241100Z 2412/2518 26010KT 9999 BKN035
TEMPO 2412/2418 27012G22KT
TEMPO 2510/2516 26015G25KT
ATIS : +352 4798 27300
Met : +352 4798 27010 / 27050
No reported NOTAMs for that airfield.



MET'MAP, your aeronautical weather chart ! - Copyright ORBIFLY December 2007 - Disclaimer

ORBIFLY MET'MAP TEAM :

Programming & Development : Alexandra Zaïnal
Concept & Development : Baudouin d'Aumeries
Co-Development & Prog : Marc-Olivier Méhu
Technical & hardware support : Manuel Goepfert

Contact : metmap@orbifly.com




SOURCES & CREDITS :

   NOAA